createdAt,value
2019-05-06T00:01:18.379Z,5.37
2019-05-06T00:03:54.009Z,7.62
2019-05-06T00:06:28.138Z,4.17
2019-05-06T00:09:03.904Z,6.53
2019-05-06T00:11:39.059Z,4.25
2019-05-06T00:14:14.125Z,5.83
2019-05-06T00:16:47.872Z,4.85
2019-05-06T00:19:22.099Z,5.83
2019-05-06T00:21:57.980Z,4.47
2019-05-06T00:24:49.252Z,4.28
2019-05-06T00:27:40.238Z,5.95
2019-05-06T00:30:14.905Z,6.95
2019-05-06T00:32:48.659Z,3.50
2019-05-06T00:35:23.443Z,5.20
2019-05-06T00:37:57.045Z,5.05
2019-05-06T00:40:36.925Z,4.05
2019-05-06T00:43:11.666Z,3.90
2019-05-06T00:45:45.445Z,3.60
2019-05-06T00:48:19.376Z,4.03
2019-05-06T00:50:54.144Z,8.00
2019-05-06T00:53:43.648Z,3.22
2019-05-06T00:56:16.936Z,3.50
2019-05-06T00:58:50.519Z,4.60
2019-05-06T01:01:29.400Z,4.67
2019-05-06T01:03:59.332Z,6.83
2019-05-06T01:06:34.447Z,4.12
2019-05-06T01:09:11.486Z,5.22
2019-05-06T01:11:46.719Z,3.37
2019-05-06T01:14:35.188Z,5.28
2019-05-06T01:17:10.553Z,3.30
2019-05-06T01:19:45.810Z,6.33
2019-05-06T01:22:19.606Z,4.58
2019-05-06T01:24:53.177Z,4.90
2019-05-06T01:27:26.758Z,5.25
2019-05-06T01:30:00.426Z,5.97
2019-05-06T01:32:34.580Z,3.80
2019-05-06T01:35:09.171Z,6.17
2019-05-06T01:37:45.327Z,5.45
2019-05-06T01:40:35.652Z,3.37
2019-05-06T01:43:16.414Z,5.00
2019-05-06T01:45:49.967Z,6.78
2019-05-06T01:48:41.290Z,4.03
2019-05-06T01:51:15.248Z,4.83
2019-05-06T01:53:49.427Z,3.45
2019-05-06T01:56:25.438Z,5.27
2019-05-06T01:58:59.018Z,4.93
2019-05-06T02:01:34.115Z,6.00
2019-05-06T02:04:08.076Z,4.72
2019-05-06T02:06:43.565Z,6.90
2019-05-06T02:09:18.539Z,5.40
2019-05-06T02:11:53.620Z,5.95
2019-05-06T02:14:28.548Z,5.53
2019-05-06T02:17:03.605Z,6.87
2019-05-06T02:19:37.877Z,5.23
2019-05-06T02:22:13.618Z,5.15
2019-05-06T02:24:54.836Z,6.10
2019-05-06T02:27:28.356Z,4.50
2019-05-06T02:30:06.340Z,4.45
2019-05-06T02:32:59.768Z,4.77
2019-05-06T02:35:46.730Z,5.17
2019-05-06T02:38:31.733Z,4.97
2019-05-06T02:41:03.484Z,4.43
2019-05-06T02:43:36.711Z,4.22
2019-05-06T02:46:12.874Z,4.00
2019-05-06T02:48:55.775Z,5.80
2019-05-06T02:51:29.323Z,4.13
2019-05-06T02:54:03.390Z,4.67
2019-05-06T02:56:37.166Z,7.83
2019-05-06T02:59:12.808Z,6.37
2019-05-06T03:01:47.002Z,4.77
2019-05-06T03:04:23.435Z,26.33
2019-05-06T03:06:57.239Z,7.47
2019-05-06T03:09:30.818Z,9.27
2019-05-06T03:12:04.366Z,12.77
2019-05-06T03:14:37.989Z,19.10
2019-05-06T03:17:13.970Z,5.53
2019-05-06T03:19:48.432Z,5.90
2019-05-06T03:22:29.605Z,13.53
2019-05-06T03:25:06.964Z,10.80
2019-05-06T03:27:40.014Z,8.77
2019-05-06T03:30:16.363Z,14.20
2019-05-06T03:33:40.127Z,7.43
2019-05-06T03:35:56.090Z,5.83
2019-05-06T03:38:16.009Z,8.10
2019-05-06T03:40:50.277Z,4.13
2019-05-06T03:43:23.829Z,6.03
2019-05-06T03:46:04.300Z,7.97
2019-05-06T03:48:47.926Z,3.93
2019-05-06T03:51:23.305Z,5.87
2019-05-06T03:53:58.556Z,6.07
2019-05-06T03:56:34.713Z,4.60
2019-05-06T04:02:05.525Z,7.00
2019-05-06T04:04:39.255Z,7.30
2019-05-06T04:07:13.902Z,8.23
2019-05-06T04:09:47.577Z,6.17
2019-05-06T04:12:23.517Z,4.43
2019-05-06T04:14:58.582Z,4.57
2019-05-06T04:17:48.636Z,6.40
2019-05-06T04:20:36.248Z,5.17
2019-05-06T04:23:09.559Z,6.90
2019-05-06T04:25:52.702Z,5.67
2019-05-06T04:28:36.902Z,6.60
2019-05-06T04:31:13.157Z,6.83
2019-05-06T04:34:03.553Z,5.23
2019-05-06T04:36:23.496Z,6.53
2019-05-06T04:38:56.933Z,5.27
2019-05-06T04:41:33.810Z,6.40
2019-05-06T04:44:06.234Z,7.47
2019-05-06T04:46:44.370Z,7.07
2019-05-06T04:49:18.230Z,4.10
2019-05-06T04:51:54.067Z,5.67
2019-05-06T04:54:27.482Z,8.60
2019-05-06T04:57:01.396Z,9.13
2019-05-06T04:59:36.979Z,7.30
2019-05-06T05:02:13.205Z,5.87
2019-05-06T05:04:46.016Z,8.23
2019-05-06T05:07:22.297Z,6.90
2019-05-06T05:09:56.637Z,4.20
2019-05-06T05:12:47.498Z,5.10
2019-05-06T05:15:35.748Z,16.73
2019-05-06T05:18:26.421Z,5.57
2019-05-06T05:21:02.084Z,6.90
2019-05-06T05:23:35.682Z,8.43
2019-05-06T05:26:09.414Z,9.70
2019-05-06T05:28:43.079Z,4.40
2019-05-06T05:31:16.630Z,4.83
2019-05-06T05:33:52.453Z,8.83
2019-05-06T05:36:26.343Z,9.27
2019-05-06T05:39:03.338Z,5.67
2019-05-06T05:41:37.575Z,6.27
2019-05-06T05:44:12.807Z,6.60
2019-05-06T05:46:46.989Z,7.33
2019-05-06T05:49:22.564Z,6.17
2019-05-06T05:51:55.790Z,4.83
2019-05-06T05:54:29.514Z,5.60
2019-05-06T05:57:03.243Z,4.03
2019-05-06T05:59:48.143Z,4.77
2019-05-06T06:02:22.978Z,7.50
2019-05-06T06:04:57.588Z,7.30
2019-05-06T06:07:32.784Z,6.95
2019-05-06T06:10:14.501Z,10.45
2019-05-06T06:12:48.216Z,7.83
2019-05-06T06:15:39.864Z,7.83
2019-05-06T06:18:14.199Z,5.40
2019-05-06T06:21:17.876Z,6.03
2019-05-06T06:23:42.450Z,4.97
2019-05-06T06:26:16.048Z,5.97
2019-05-06T06:28:52.137Z,4.17
2019-05-06T06:31:27.908Z,4.30
2019-05-06T06:34:05.975Z,5.97
2019-05-06T06:36:57.575Z,4.97
2019-05-06T06:39:34.664Z,3.30
2019-05-06T06:42:08.206Z,4.10
2019-05-06T06:44:45.502Z,3.87
2019-05-06T06:47:19.761Z,4.92
2019-05-06T06:49:54.192Z,3.15
2019-05-06T06:52:27.791Z,5.63
2019-05-06T06:55:02.365Z,9.47
2019-05-06T06:57:42.396Z,5.27
2019-05-06T07:00:24.266Z,4.20
2019-05-06T07:02:59.926Z,8.05
2019-05-06T07:05:38.040Z,4.05
2019-05-06T07:08:12.686Z,3.45
2019-05-06T07:10:46.580Z,4.53
2019-05-06T07:13:20.376Z,4.65
2019-05-06T07:15:54.040Z,3.90
2019-05-06T07:18:28.447Z,5.87
2019-05-06T07:21:07.655Z,3.30
2019-05-06T07:23:42.119Z,2.60
2019-05-06T07:26:17.246Z,4.90
2019-05-06T07:28:52.630Z,4.47
2019-05-06T07:31:26.851Z,2.50
2019-05-06T07:34:02.603Z,4.45
2019-05-06T07:36:36.277Z,2.77
2019-05-06T07:39:09.993Z,2.70
2019-05-06T07:41:46.162Z,4.70
2019-05-06T07:44:37.744Z,4.30
2019-05-06T07:47:33.824Z,2.15
2019-05-06T07:50:09.165Z,3.42
2019-05-06T07:52:45.105Z,4.67
2019-05-06T07:55:18.790Z,4.28
2019-05-06T07:57:52.601Z,2.42
2019-05-06T08:00:26.485Z,3.12
2019-05-06T08:03:02.543Z,6.55
2019-05-06T08:05:35.723Z,3.22
2019-05-06T08:08:09.290Z,3.35
2019-05-06T08:10:42.940Z,3.95
2019-05-06T08:13:16.592Z,4.70
2019-05-06T08:15:50.293Z,2.47
2019-05-06T08:18:25.550Z,3.15
2019-05-06T08:21:02.480Z,1.98
2019-05-06T08:23:42.844Z,3.20
2019-05-06T08:26:17.877Z,2.30
2019-05-06T08:28:52.732Z,4.05
2019-05-06T08:31:26.594Z,5.17
2019-05-06T08:34:00.125Z,4.05
2019-05-06T08:36:42.915Z,3.85
2019-05-06T08:39:17.528Z,2.02
2019-05-06T08:41:52.879Z,2.50
2019-05-06T08:44:27.062Z,2.70
2019-05-06T08:47:02.548Z,3.77
2019-05-06T08:49:37.993Z,3.45
2019-05-06T08:52:13.137Z,2.90
2019-05-06T08:54:48.319Z,6.45
2019-05-06T08:57:22.817Z,2.35
2019-05-06T08:59:56.499Z,1.55
2019-05-06T09:02:32.329Z,2.30
2019-05-06T09:05:07.958Z,2.02
2019-05-06T09:07:44.189Z,1.42
2019-05-06T09:10:17.866Z,4.22
2019-05-06T09:12:52.539Z,5.22
2019-05-06T09:15:26.225Z,7.28
2019-05-06T09:17:59.797Z,4.97
2019-05-06T09:20:33.377Z,6.00
2019-05-06T09:23:08.808Z,1.32
2019-05-06T09:25:43.255Z,1.42
2019-05-06T09:28:18.507Z,1.80
2019-05-06T09:30:53.615Z,3.40
2019-05-06T09:33:28.927Z,1.77
2019-05-06T09:36:03.311Z,2.55
2019-05-06T09:38:37.074Z,3.67
2019-05-06T09:41:12.418Z,1.50
2019-05-06T09:43:46.219Z,3.70
2019-05-06T09:46:19.911Z,2.17
2019-05-06T09:49:12.761Z,2.20
2019-05-06T09:51:46.520Z,2.10
2019-05-06T09:54:24.493Z,1.92
2019-05-06T09:57:08.588Z,2.90
2019-05-06T09:59:42.309Z,4.33
2019-05-06T10:02:16.258Z,1.17
2019-05-06T10:04:52.215Z,1.80
2019-05-06T10:07:26.300Z,5.22
2019-05-06T10:09:59.988Z,4.58
2019-05-06T10:12:33.699Z,2.83
2019-05-06T10:15:07.834Z,3.77
2019-05-06T10:17:42.918Z,2.95
2019-05-06T10:20:16.949Z,10.05
2019-05-06T10:22:52.448Z,1.95
2019-05-06T10:25:25.973Z,2.95
2019-05-06T10:28:02.721Z,1.95
2019-05-06T10:30:37.655Z,3.70
2019-05-06T10:33:15.890Z,2.83
2019-05-06T10:35:49.869Z,4.58
2019-05-06T10:38:44.636Z,2.02
2019-05-06T10:41:28.671Z,6.28
2019-05-06T10:44:24.628Z,6.35
2019-05-06T10:46:58.386Z,9.85
2019-05-06T10:49:33.691Z,3.87
2019-05-06T10:52:13.103Z,4.80
2019-05-06T10:54:46.712Z,3.12
2019-05-06T10:57:32.781Z,2.58
2019-05-06T11:00:08.729Z,2.12
2019-05-06T11:02:45.021Z,3.77
2019-05-06T11:05:19.120Z,3.55
2019-05-06T11:10:48.155Z,2.92
2019-05-06T11:13:24.184Z,3.90
2019-05-06T11:15:57.113Z,2.02
2019-05-06T11:18:33.147Z,3.10
2019-05-06T11:21:07.027Z,3.30
2019-05-06T11:23:41.875Z,1.65
2019-05-06T11:26:18.458Z,3.15
2019-05-06T11:28:56.456Z,16.67
2019-05-06T11:31:37.694Z,4.78
2019-05-06T11:34:23.436Z,6.80
2019-05-06T11:37:19.547Z,9.43
2019-05-06T11:39:53.286Z,12.78
2019-05-06T11:42:32.534Z,6.15
2019-05-06T11:45:03.657Z,6.40
2019-05-06T11:47:42.070Z,5.22
2019-05-06T11:50:16.446Z,3.47
2019-05-06T11:52:57.437Z,3.50
2019-05-06T11:55:38.065Z,6.55
2019-05-06T11:58:07.991Z,3.62
2019-05-06T12:00:44.495Z,4.35
2019-05-06T12:03:18.245Z,3.72
2019-05-06T12:05:52.636Z,4.83
2019-05-06T12:08:26.707Z,2.77
2019-05-06T12:11:02.776Z,2.37
2019-05-06T12:13:38.188Z,2.95
2019-05-06T12:16:14.052Z,4.97
2019-05-06T12:18:46.510Z,4.20
2019-05-06T12:21:20.024Z,2.30
2019-05-06T12:23:54.058Z,4.12
2019-05-06T12:26:27.962Z,2.95
2019-05-06T12:29:02.221Z,3.40
2019-05-06T12:31:36.996Z,4.22
2019-05-06T12:34:14.476Z,4.55
2019-05-06T12:36:52.779Z,2.72
2019-05-06T12:39:29.133Z,2.02
2019-05-06T12:42:16.787Z,3.72
2019-05-06T12:44:52.942Z,4.87
2019-05-06T12:47:47.708Z,4.67
2019-05-06T12:50:22.768Z,4.33
2019-05-06T12:52:57.885Z,3.85
2019-05-06T12:55:33.622Z,2.00
2019-05-06T12:58:07.319Z,4.50
2019-05-06T13:00:40.938Z,3.45
2019-05-06T13:03:15.071Z,3.67
2019-05-06T13:05:49.315Z,3.25
2019-05-06T13:11:05.078Z,2.20
2019-05-06T13:13:53.987Z,2.33
2019-05-06T13:16:15.451Z,4.87
2019-05-06T13:21:45.720Z,4.45
2019-05-06T13:24:27.409Z,3.33
2019-05-06T13:27:02.710Z,3.72
2019-05-06T13:29:36.496Z,5.83
2019-05-06T13:32:12.894Z,13.05
2019-05-06T13:34:46.598Z,4.72
2019-05-06T13:37:27.639Z,5.45
2019-05-06T13:40:02.334Z,4.15
2019-05-06T13:42:37.932Z,6.17
2019-05-06T13:45:13.289Z,8.93
2019-05-06T13:47:46.726Z,3.95
2019-05-06T13:50:28.037Z,14.00
2019-05-06T13:53:09.042Z,4.70
2019-05-06T13:55:42.729Z,2.83
2019-05-06T13:58:16.109Z,6.00
2019-05-06T14:00:51.998Z,7.60
2019-05-06T14:03:25.700Z,9.23
2019-05-06T14:05:59.340Z,4.25
2019-05-06T14:08:33.150Z,3.58
2019-05-06T14:11:06.734Z,7.45
2019-05-06T14:13:42.210Z,3.25
2019-05-06T14:16:16.095Z,2.95
2019-05-06T14:18:50.392Z,4.65
2019-05-06T14:21:24.328Z,2.83
2019-05-06T14:23:58.127Z,9.85
2019-05-06T14:26:36.576Z,6.12
2019-05-06T14:29:28.483Z,6.12
2019-05-06T14:32:02.590Z,5.15
2019-05-06T14:34:36.772Z,7.58
2019-05-06T14:37:10.546Z,3.72
2019-05-06T14:39:53.650Z,11.75
2019-05-06T14:42:22.236Z,4.47
2019-05-06T14:44:55.930Z,4.42
2019-05-06T14:47:32.777Z,5.42
2019-05-06T14:50:09.412Z,3.90
2019-05-06T14:52:43.119Z,6.12
2019-05-06T14:55:24.701Z,4.42
2019-05-06T14:58:04.568Z,5.40
2019-05-06T15:00:38.294Z,6.10
2019-05-06T15:03:12.916Z,6.80
2019-05-06T15:05:46.744Z,7.15
2019-05-06T15:08:22.459Z,4.65
2019-05-06T15:10:56.072Z,5.17
2019-05-06T15:13:31.996Z,5.67
2019-05-06T15:16:04.973Z,5.28
2019-05-06T15:18:38.886Z,9.25
2019-05-06T15:21:33.745Z,5.50
2019-05-06T15:23:48.029Z,6.12
2019-05-06T15:26:26.172Z,4.75
2019-05-06T15:28:59.825Z,7.25
2019-05-06T15:31:34.106Z,5.80
2019-05-06T15:34:15.230Z,6.80
2019-05-06T15:37:08.093Z,17.00
2019-05-06T15:39:43.784Z,8.63
2019-05-06T15:42:17.097Z,9.35
2019-05-06T15:44:51.417Z,6.50
2019-05-06T15:47:24.994Z,7.28
2019-05-06T15:49:58.514Z,7.00
2019-05-06T15:52:32.796Z,8.28
2019-05-06T15:55:08.292Z,8.70
2019-05-06T15:57:43.467Z,7.60
2019-05-06T16:00:22.302Z,5.78
2019-05-06T16:02:55.214Z,9.38
2019-05-06T16:05:30.799Z,13.70
2019-05-06T16:08:04.116Z,7.28
2019-05-06T16:10:52.055Z,30.05
2019-05-06T16:13:14.889Z,8.90
2019-05-06T16:15:48.564Z,8.28
2019-05-06T16:18:23.459Z,7.17
2019-05-06T16:20:57.650Z,8.98
2019-05-06T16:23:36.038Z,6.78
2019-05-06T16:26:12.235Z,10.63
2019-05-06T16:28:45.289Z,12.47
2019-05-06T16:31:18.959Z,9.08
2019-05-06T16:33:52.711Z,13.72
2019-05-06T16:36:26.299Z,12.23
2019-05-06T16:38:59.939Z,7.60
2019-05-06T16:41:33.498Z,10.70
2019-05-06T16:44:08.238Z,7.92
2019-05-06T16:46:42.752Z,13.03
2019-05-06T16:49:16.646Z,8.63
2019-05-06T16:51:52.524Z,16.77
2019-05-06T16:54:26.902Z,9.83
2019-05-06T16:57:17.668Z,4.12
2019-05-06T16:59:52.243Z,7.35
2019-05-06T17:02:27.511Z,9.60
2019-05-06T17:05:03.584Z,11.03
2019-05-06T17:07:37.229Z,11.22
2019-05-06T17:10:12.251Z,9.18
2019-05-06T17:12:45.813Z,9.88
2019-05-06T17:15:19.487Z,9.23
2019-05-06T17:17:53.290Z,8.68
2019-05-06T17:20:26.964Z,7.90
2019-05-06T17:23:02.646Z,9.23
2019-05-06T17:25:35.931Z,10.53
2019-05-06T17:28:27.508Z,10.55
2019-05-06T17:31:05.444Z,8.75
2019-05-06T17:33:43.650Z,6.95
2019-05-06T17:36:19.026Z,15.65
2019-05-06T17:38:54.356Z,7.92
2019-05-06T17:41:42.459Z,9.38
2019-05-06T17:44:03.299Z,8.35
2019-05-06T17:46:55.006Z,8.83
2019-05-06T17:49:30.446Z,10.50
2019-05-06T17:52:11.806Z,6.47
2019-05-06T17:54:45.411Z,9.85
2019-05-06T17:57:19.096Z,8.15
2019-05-06T17:59:52.991Z,10.32
2019-05-06T18:02:28.272Z,13.15
2019-05-06T18:05:02.827Z,14.38
2019-05-06T18:07:37.949Z,8.50
2019-05-06T18:10:12.139Z,12.93
2019-05-06T18:12:45.902Z,14.30
2019-05-06T18:15:19.542Z,10.95
2019-05-06T18:17:53.357Z,12.53
2019-05-06T18:20:27.337Z,10.70
2019-05-06T18:23:02.117Z,12.05
2019-05-06T18:25:35.950Z,11.55
2019-05-06T18:28:12.112Z,14.23
2019-05-06T18:30:47.346Z,12.18
2019-05-06T18:33:22.562Z,12.30
2019-05-06T18:35:56.068Z,15.78
2019-05-06T18:38:29.676Z,15.48
2019-05-06T18:41:03.205Z,15.75
2019-05-06T18:43:36.897Z,16.57
2019-05-06T18:46:12.179Z,15.88
2019-05-06T18:48:45.968Z,15.53
2019-05-06T18:51:19.583Z,15.58
2019-05-06T18:53:53.087Z,15.35
2019-05-06T18:56:26.613Z,15.93
2019-05-06T18:59:02.890Z,16.25
2019-05-06T19:01:36.579Z,15.68
2019-05-06T19:04:22.584Z,17.82
2019-05-06T19:07:09.360Z,22.25
2019-05-06T19:09:39.884Z,18.15
2019-05-06T19:12:28.874Z,17.37
2019-05-06T19:14:49.595Z,16.40
2019-05-06T19:17:23.301Z,15.23
2019-05-06T19:19:56.907Z,16.55
2019-05-06T19:22:32.490Z,17.50
2019-05-06T19:25:06.210Z,18.82
2019-05-06T19:27:41.544Z,16.97
2019-05-06T19:30:16.129Z,16.93
2019-05-06T19:32:50.419Z,16.93
2019-05-06T19:35:24.092Z,23.22
2019-05-06T19:37:57.720Z,21.20
2019-05-06T19:40:32.267Z,21.73
2019-05-06T19:43:07.261Z,22.45
2019-05-06T19:45:42.270Z,26.05
2019-05-06T19:48:15.925Z,27.05
2019-05-06T19:50:52.109Z,26.45
2019-05-06T19:53:25.058Z,29.18
2019-05-06T19:55:59.583Z,33.58
2019-05-06T19:58:34.019Z,36.10
2019-05-06T20:01:07.854Z,27.45
2019-05-06T20:03:41.451Z,26.75
2019-05-06T20:06:32.925Z,30.95
2019-05-06T20:09:26.732Z,30.48
2019-05-06T20:12:02.809Z,21.15
2019-05-06T20:14:37.658Z,21.80
2019-05-06T20:17:12.968Z,19.20
2019-05-06T20:19:46.723Z,16.90
2019-05-06T20:22:20.350Z,18.45
2019-05-06T20:24:53.947Z,23.32
2019-05-06T20:27:28.044Z,23.67
2019-05-06T20:30:03.365Z,27.58
2019-05-06T20:32:38.507Z,28.35
2019-05-06T20:35:13.086Z,25.55
2019-05-06T20:37:46.752Z,22.73
2019-05-06T20:40:23.021Z,25.00
2019-05-06T20:42:56.081Z,21.95
2019-05-06T20:45:33.203Z,23.20
2019-05-06T20:48:05.964Z,25.92
2019-05-06T20:50:39.983Z,28.32
2019-05-06T20:53:14.028Z,23.55
2019-05-06T20:55:47.695Z,21.40
2019-05-06T20:58:22.954Z,20.70
2019-05-06T21:00:56.859Z,18.15
2019-05-06T21:03:32.660Z,15.43
2019-05-06T21:06:05.827Z,21.62
2019-05-06T21:08:39.360Z,18.05
2019-05-06T21:11:25.813Z,14.83
2019-05-06T21:13:48.431Z,14.07
2019-05-06T21:16:35.213Z,16.27
2019-05-06T21:19:14.461Z,19.48
2019-05-06T21:21:48.162Z,16.70
2019-05-06T21:24:22.588Z,18.80
2019-05-06T21:26:56.401Z,13.43
2019-05-06T21:29:29.931Z,13.35
2019-05-06T21:32:04.109Z,15.88
2019-05-06T21:34:37.664Z,21.57
2019-05-06T21:37:12.271Z,13.68
2019-05-06T21:39:45.945Z,11.38
2019-05-06T21:42:19.592Z,14.78
2019-05-06T21:45:16.931Z,12.90
2019-05-06T21:47:52.989Z,8.65
2019-05-06T21:50:26.698Z,12.05
2019-05-06T21:53:02.534Z,14.18
2019-05-06T21:55:37.016Z,15.20
2019-05-06T21:58:12.399Z,15.23
2019-05-06T22:00:47.436Z,13.62
2019-05-06T22:03:22.964Z,11.55
2019-05-06T22:05:56.398Z,17.12
2019-05-06T22:08:32.822Z,17.77
2019-05-06T22:11:07.363Z,12.13
2019-05-06T22:13:42.540Z,11.25
2019-05-06T22:16:16.452Z,14.55
2019-05-06T22:18:52.700Z,14.13
2019-05-06T22:21:26.017Z,16.62
2019-05-06T22:24:04.674Z,18.00
2019-05-06T22:26:38.594Z,12.40
2019-05-06T22:29:12.787Z,15.75
2019-05-06T22:31:46.516Z,16.77
2019-05-06T22:34:22.097Z,14.58
2019-05-06T22:36:55.347Z,13.80
2019-05-06T22:39:29.027Z,17.02
2019-05-06T22:42:02.569Z,16.32
2019-05-06T22:44:36.253Z,19.30
2019-05-06T22:47:11.689Z,14.83
2019-05-06T22:49:45.148Z,15.90
2019-05-06T22:52:18.697Z,19.77
2019-05-06T22:54:52.793Z,9.60
2019-05-06T22:57:26.415Z,17.07
2019-05-06T23:00:00.124Z,18.73
2019-05-06T23:02:35.716Z,19.00
2019-05-06T23:05:12.245Z,16.75
2019-05-06T23:07:46.819Z,14.83
2019-05-06T23:10:24.311Z,18.17
2019-05-06T23:12:55.599Z,22.90
2019-05-06T23:15:33.972Z,18.82
2019-05-06T23:18:07.013Z,14.58
2019-05-06T23:20:42.910Z,16.27
2019-05-06T23:23:16.382Z,16.30
2019-05-06T23:25:52.509Z,12.63
2019-05-06T23:28:26.226Z,22.55
2019-05-06T23:31:01.888Z,16.85
2019-05-06T23:33:35.179Z,16.32
2019-05-06T23:36:08.723Z,16.87
2019-05-06T23:39:38.606Z,14.00
2019-05-06T23:43:06.629Z,18.50
2019-05-06T23:46:34.328Z,22.70
2019-05-06T23:50:03.642Z,33.85
2019-05-06T23:53:32.754Z,31.60
2019-05-06T23:56:43.521Z,28.40
2019-05-06T23:59:18.953Z,46.58
